Terminal Aerodrome Forecast
Issued by NWS

Home | Current Version | Previous Version | Text Only | Print | Product List | Glossary Off
Versions: 1 2 3 4 5 6 7 8 9 10 11 12 13 14 15 16 17 18 19 20 21 22 23 24 25 26 27 28 29 30 31 32 33 34 35 36 37 38

000
FTUS43 KLOT 181100
TAFMDW
TAF
KMDW 181125Z 1812/1912 VRB03KT P6SM OVC007
     FM181400 VRB03KT 6SM BR BKN012
     FM181600 24003KT P6SM BKN020
     FM181800 20004KT P6SM SCT025 SCT100
     FM182100 09009KT P6SM SCT040 BKN200
     FM190100 19006KT P6SM BKN050 BKN100
     FM190400 20007KT P6SM SHRA VCTS SCT035CB BKN050
     FM190700 20010KT P6SM -TSRA SCT035CB BKN040
     FM191100 22009KT 4SM SHRA BR BKN025 PROB30 1911/1912 TSRA
      BKN035CB=

USA.gov is the U.S. government's official web portal to all federal, state and local government web resources and services.